sensor_id;sensor_type;location;lat;lon;timestamp;pressure;altitude;pressure_sealevel;temperature;humidity
20696;BME280;10507;52.754;13.040;2023-09-19T00:00:35;100368.50;;;17.93;100.00
20696;BME280;10507;52.754;13.040;2023-09-19T00:03:03;100378.34;;;17.94;100.00
20696;BME280;10507;52.754;13.040;2023-09-19T00:05:35;100390.09;;;17.93;100.00
20696;BME280;10507;52.754;13.040;2023-09-19T00:08:05;100397.47;;;17.91;100.00
20696;BME280;10507;52.754;13.040;2023-09-19T00:10:34;100401.19;;;17.90;100.00
20696;BME280;10507;52.754;13.040;2023-09-19T00:13:03;100398.28;;;17.82;100.00
20696;BME280;10507;52.754;13.040;2023-09-19T00:15:38;100418.06;;;17.82;100.00
20696;BME280;10507;52.754;13.040;2023-09-19T00:18:06;100418.38;;;17.78;100.00
20696;BME280;10507;52.754;13.040;2023-09-19T00:20:36;100424.16;;;17.73;100.00
20696;BME280;10507;52.754;13.040;2023-09-19T00:23:04;100433.53;;;17.69;100.00
20696;BME280;10507;52.754;13.040;2023-09-19T00:25:35;100456.22;;;17.66;100.00
20696;BME280;10507;52.754;13.040;2023-09-19T00:28:05;100460.78;;;17.66;100.00
20696;BME280;10507;52.754;13.040;2023-09-19T00:30:34;100457.34;;;17.64;100.00
20696;BME280;10507;52.754;13.040;2023-09-19T00:33:06;100476.25;;;17.64;100.00
20696;BME280;10507;52.754;13.040;2023-09-19T00:35:34;100465.69;;;17.61;100.00
20696;BME280;10507;52.754;13.040;2023-09-19T00:38:03;100473.91;;;17.59;100.00
20696;BME280;10507;52.754;13.040;2023-09-19T00:40:33;100480.91;;;17.62;100.00
20696;BME280;10507;52.754;13.040;2023-09-19T00:43:02;100489.16;;;17.60;100.00
20696;BME280;10507;52.754;13.040;2023-09-19T00:45:30;100489.53;;;17.56;100.00
20696;BME280;10507;52.754;13.040;2023-09-19T00:48:01;100490.50;;;17.55;100.00
20696;BME280;10507;52.754;13.040;2023-09-19T00:50:41;100497.88;;;17.53;100.00
20696;BME280;10507;52.754;13.040;2023-09-19T00:53:14;100500.72;;;17.51;100.00
20696;BME280;10507;52.754;13.040;2023-09-19T00:55:42;100498.38;;;17.47;100.00
20696;BME280;10507;52.754;13.040;2023-09-19T00:58:11;100509.19;;;17.47;100.00
20696;BME280;10507;52.754;13.040;2023-09-19T01:00:40;100515.53;;;17.45;100.00
20696;BME280;10507;52.754;13.040;2023-09-19T01:03:11;100526.34;;;17.45;100.00
20696;BME280;10507;52.754;13.040;2023-09-19T01:05:41;100524.88;;;17.41;100.00
20696;BME280;10507;52.754;13.040;2023-09-19T01:08:10;100519.09;;;17.35;100.00
20696;BME280;10507;52.754;13.040;2023-09-19T01:10:43;100531.00;;;17.32;100.00
20696;BME280;10507;52.754;13.040;2023-09-19T01:13:22;100546.47;;;17.30;100.00
20696;BME280;10507;52.754;13.040;2023-09-19T01:15:59;100549.41;;;17.27;100.00
20696;BME280;10507;52.754;13.040;2023-09-19T01:18:40;100558.38;;;17.28;100.00
20696;BME280;10507;52.754;13.040;2023-09-19T01:21:18;100578.09;;;17.28;100.00
20696;BME280;10507;52.754;13.040;2023-09-19T01:24:10;100579.09;;;17.27;100.00
20696;BME280;10507;52.754;13.040;2023-09-19T01:27:02;100589.91;;;17.27;100.00
20696;BME280;10507;52.754;13.040;2023-09-19T01:29:38;100588.06;;;17.28;100.00
20696;BME280;10507;52.754;13.040;2023-09-19T01:32:08;100559.47;;;17.25;100.00
20696;BME280;10507;52.754;13.040;2023-09-19T01:34:44;100556.66;;;17.27;100.00
20696;BME280;10507;52.754;13.040;2023-09-19T01:37:13;100555.78;;;17.26;100.00
20696;BME280;10507;52.754;13.040;2023-09-19T01:39:46;100551.38;;;17.25;100.00
20696;BME280;10507;52.754;13.040;2023-09-19T01:42:24;100558.63;;;17.24;100.00
20696;BME280;10507;52.754;13.040;2023-09-19T01:45:03;100550.63;;;17.23;100.00
20696;BME280;10507;52.754;13.040;2023-09-19T01:47:37;100542.06;;;17.18;100.00
20696;BME280;10507;52.754;13.040;2023-09-19T01:50:13;100545.63;;;17.18;100.00
20696;BME280;10507;52.754;13.040;2023-09-19T01:52:48;100568.78;;;17.21;100.00
20696;BME280;10507;52.754;13.040;2023-09-19T01:55:19;100572.34;;;17.21;100.00
20696;BME280;10507;52.754;13.040;2023-09-19T01:57:51;100581.31;;;17.22;100.00
20696;BME280;10507;52.754;13.040;2023-09-19T02:00:22;100570.53;;;17.22;100.00
20696;BME280;10507;52.754;13.040;2023-09-19T02:02:52;100568.91;;;17.19;100.00
20696;BME280;10507;52.754;13.040;2023-09-19T02:05:22;100557.38;;;17.17;100.00
20696;BME280;10507;52.754;13.040;2023-09-19T02:07:51;100548.78;;;17.12;100.00
20696;BME280;10507;52.754;13.040;2023-09-19T02:10:19;100557.03;;;17.11;100.00
20696;BME280;10507;52.754;13.040;2023-09-19T02:12:47;100564.38;;;17.09;100.00
20696;BME280;10507;52.754;13.040;2023-09-19T02:15:16;100564.84;;;17.02;100.00
20696;BME280;10507;52.754;13.040;2023-09-19T02:17:43;100563.38;;;16.98;100.00
20696;BME280;10507;52.754;13.040;2023-09-19T02:20:14;100580.66;;;16.96;100.00
20696;BME280;10507;52.754;13.040;2023-09-19T02:22:46;100580.16;;;16.91;100.00
20696;BME280;10507;52.754;13.040;2023-09-19T02:25:16;100598.31;;;16.89;100.00
20696;BME280;10507;52.754;13.040;2023-09-19T02:27:46;100609.44;;;16.84;100.00
20696;BME280;10507;52.754;13.040;2023-09-19T02:30:14;100624.97;;;16.80;100.00
20696;BME280;10507;52.754;13.040;2023-09-19T02:32:42;100636.94;;;16.76;100.00
20696;BME280;10507;52.754;13.040;2023-09-19T02:35:11;100658.66;;;16.75;100.00
20696;BME280;10507;52.754;13.040;2023-09-19T02:37:42;100666.00;;;16.73;100.00
20696;BME280;10507;52.754;13.040;2023-09-19T02:40:11;100657.16;;;16.71;100.00
20696;BME280;10507;52.754;13.040;2023-09-19T02:42:47;100653.94;;;16.66;100.00
20696;BME280;10507;52.754;13.040;2023-09-19T02:45:16;100645.97;;;16.64;100.00
20696;BME280;10507;52.754;13.040;2023-09-19T02:47:48;100639.00;;;16.61;100.00
20696;BME280;10507;52.754;13.040;2023-09-19T02:50:16;100646.19;;;16.61;100.00
20696;BME280;10507;52.754;13.040;2023-09-19T02:52:47;100652.69;;;16.58;100.00
20696;BME280;10507;52.754;13.040;2023-09-19T02:55:16;100643.09;;;16.54;100.00
20696;BME280;10507;52.754;13.040;2023-09-19T02:57:47;100645.03;;;16.52;100.00
20696;BME280;10507;52.754;13.040;2023-09-19T03:00:16;100628.16;;;16.50;100.00
20696;BME280;10507;52.754;13.040;2023-09-19T03:02:48;100581.59;;;16.48;100.00
20696;BME280;10507;52.754;13.040;2023-09-19T03:05:17;100543.88;;;16.48;100.00
20696;BME280;10507;52.754;13.040;2023-09-19T03:07:47;100490.44;;;16.53;100.00
20696;BME280;10507;52.754;13.040;2023-09-19T03:10:17;100441.19;;;16.51;100.00
20696;BME280;10507;52.754;13.040;2023-09-19T03:12:46;100425.13;;;16.50;100.00
20696;BME280;10507;52.754;13.040;2023-09-19T03:15:14;100413.88;;;16.45;100.00
20696;BME280;10507;52.754;13.040;2023-09-19T03:17:43;100418.41;;;16.44;100.00
20696;BME280;10507;52.754;13.040;2023-09-19T03:20:12;100411.28;;;16.43;100.00
20696;BME280;10507;52.754;13.040;2023-09-19T03:22:43;100411.53;;;16.40;100.00
20696;BME280;10507;52.754;13.040;2023-09-19T03:25:13;100382.88;;;16.39;100.00
20696;BME280;10507;52.754;13.040;2023-09-19T03:27:42;100374.06;;;16.37;100.00
20696;BME280;10507;52.754;13.040;2023-09-19T03:30:10;100353.47;;;16.36;100.00
20696;BME280;10507;52.754;13.040;2023-09-19T03:32:44;100331.44;;;16.31;100.00
20696;BME280;10507;52.754;13.040;2023-09-19T03:35:13;100318.06;;;16.29;100.00
20696;BME280;10507;52.754;13.040;2023-09-19T03:37:41;100309.25;;;16.27;100.00
20696;BME280;10507;52.754;13.040;2023-09-19T03:40:10;100289.66;;;16.25;100.00
20696;BME280;10507;52.754;13.040;2023-09-19T03:42:40;100276.34;;;16.24;100.00
20696;BME280;10507;52.754;13.040;2023-09-19T03:45:09;100263.81;;;16.23;100.00
20696;BME280;10507;52.754;13.040;2023-09-19T03:47:41;100254.16;;;16.20;100.00
20696;BME280;10507;52.754;13.040;2023-09-19T03:50:09;100235.66;;;16.15;100.00
20696;BME280;10507;52.754;13.040;2023-09-19T03:52:41;100214.50;;;16.11;100.00
20696;BME280;10507;52.754;13.040;2023-09-19T03:55:09;100221.00;;;16.08;100.00
20696;BME280;10507;52.754;13.040;2023-09-19T03:57:36;100223.69;;;16.08;100.00
20696;BME280;10507;52.754;13.040;2023-09-19T04:00:08;100221.47;;;16.02;100.00
20696;BME280;10507;52.754;13.040;2023-09-19T04:02:38;100224.41;;;15.99;100.00
20696;BME280;10507;52.754;13.040;2023-09-19T04:05:07;100202.25;;;15.95;100.00
20696;BME280;10507;52.754;13.040;2023-09-19T04:07:36;100187.47;;;15.90;100.00
20696;BME280;10507;52.754;13.040;2023-09-19T04:10:04;100203.72;;;15.88;100.00
20696;BME280;10507;52.754;13.040;2023-09-19T04:12:32;100209.47;;;15.84;100.00
20696;BME280;10507;52.754;13.040;2023-09-19T04:15:00;100208.75;;;15.82;100.00
20696;BME280;10507;52.754;13.040;2023-09-19T04:17:30;100206.03;;;15.82;100.00
20696;BME280;10507;52.754;13.040;2023-09-19T04:20:00;100230.91;;;15.85;100.00
20696;BME280;10507;52.754;13.040;2023-09-19T04:22:27;100251.56;;;15.96;100.00
20696;BME280;10507;52.754;13.040;2023-09-19T04:24:55;100245.22;;;16.08;100.00
20696;BME280;10507;52.754;13.040;2023-09-19T04:27:23;100247.91;;;16.19;100.00
20696;BME280;10507;52.754;13.040;2023-09-19T04:29:51;100228.78;;;16.34;100.00
20696;BME280;10507;52.754;13.040;2023-09-19T04:32:19;100230.75;;;16.43;100.00
20696;BME280;10507;52.754;13.040;2023-09-19T04:34:49;100203.56;;;16.46;100.00
20696;BME280;10507;52.754;13.040;2023-09-19T04:37:17;100200.72;;;16.48;100.00
20696;BME280;10507;52.754;13.040;2023-09-19T04:39:45;100182.13;;;16.45;100.00
20696;BME280;10507;52.754;13.040;2023-09-19T04:42:13;100185.53;;;16.47;100.00
20696;BME280;10507;52.754;13.040;2023-09-19T04:44:41;100201.34;;;16.51;100.00
20696;BME280;10507;52.754;13.040;2023-09-19T04:47:09;100171.22;;;16.46;100.00
20696;BME280;10507;52.754;13.040;2023-09-19T04:49:39;100152.59;;;16.43;100.00
20696;BME280;10507;52.754;13.040;2023-09-19T04:52:08;100120.06;;;16.35;100.00
20696;BME280;10507;52.754;13.040;2023-09-19T04:54:36;100116.13;;;16.28;100.00
20696;BME280;10507;52.754;13.040;2023-09-19T04:57:05;100134.41;;;16.24;100.00
20696;BME280;10507;52.754;13.040;2023-09-19T04:59:33;100126.59;;;16.21;100.00
20696;BME280;10507;52.754;13.040;2023-09-19T05:02:02;100105.66;;;16.13;100.00
20696;BME280;10507;52.754;13.040;2023-09-19T05:04:30;100105.19;;;16.08;100.00
20696;BME280;10507;52.754;13.040;2023-09-19T05:06:59;100121.56;;;16.05;100.00
20696;BME280;10507;52.754;13.040;2023-09-19T05:09:29;100123.69;;;16.02;100.00
20696;BME280;10507;52.754;13.040;2023-09-19T05:12:00;100136.53;;;15.98;100.00
20696;BME280;10507;52.754;13.040;2023-09-19T05:14:28;100135.06;;;15.94;100.00
20696;BME280;10507;52.754;13.040;2023-09-19T05:16:56;100133.63;;;15.90;100.00
20696;BME280;10507;52.754;13.040;2023-09-19T05:19:24;100132.88;;;15.88;100.00
20696;BME280;10507;52.754;13.040;2023-09-19T05:21:52;100140.22;;;15.86;100.00
20696;BME280;10507;52.754;13.040;2023-09-19T05:24:21;100153.78;;;15.84;100.00
20696;BME280;10507;52.754;13.040;2023-09-19T05:26:54;100151.22;;;15.83;100.00
20696;BME280;10507;52.754;13.040;2023-09-19T05:29:23;100161.25;;;15.80;100.00
20696;BME280;10507;52.754;13.040;2023-09-19T05:31:51;100183.41;;;15.84;100.00
20696;BME280;10507;52.754;13.040;2023-09-19T05:34:21;100195.75;;;15.87;100.00
20696;BME280;10507;52.754;13.040;2023-09-19T05:36:49;100195.53;;;15.90;100.00
20696;BME280;10507;52.754;13.040;2023-09-19T05:39:18;100196.13;;;15.93;100.00
20696;BME280;10507;52.754;13.040;2023-09-19T05:41:46;100191.38;;;15.97;100.00
20696;BME280;10507;52.754;13.040;2023-09-19T05:44:16;100195.28;;;16.04;100.00
20696;BME280;10507;52.754;13.040;2023-09-19T05:46:44;100210.69;;;16.13;100.00
20696;BME280;10507;52.754;13.040;2023-09-19T05:49:12;100204.56;;;16.23;100.00
20696;BME280;10507;52.754;13.040;2023-09-19T05:51:40;100212.41;;;16.37;100.00
20696;BME280;10507;52.754;13.040;2023-09-19T05:54:08;100214.06;;;16.49;100.00
20696;BME280;10507;52.754;13.040;2023-09-19T05:56:37;100261.69;;;16.82;100.00
20696;BME280;10507;52.754;13.040;2023-09-19T05:59:05;100321.31;;;17.44;100.00
20696;BME280;10507;52.754;13.040;2023-09-19T06:01:35;100301.84;;;17.94;98.36
20696;BME280;10507;52.754;13.040;2023-09-19T06:04:05;100248.28;;;18.30;95.48
20696;BME280;10507;52.754;13.040;2023-09-19T06:06:33;100212.72;;;18.34;94.15
20696;BME280;10507;52.754;13.040;2023-09-19T06:09:05;100271.22;;;18.85;92.85
20696;BME280;10507;52.754;13.040;2023-09-19T06:11:35;100296.03;;;19.59;90.11
20696;BME280;10507;52.754;13.040;2023-09-19T06:14:03;100348.97;;;20.39;87.44
20696;BME280;10507;52.754;13.040;2023-09-19T06:16:31;100283.84;;;21.04;83.96
20696;BME280;10507;52.754;13.040;2023-09-19T06:19:01;100223.25;;;21.57;80.65
20696;BME280;10507;52.754;13.040;2023-09-19T06:21:29;100296.50;;;22.37;79.13
20696;BME280;10507;52.754;13.040;2023-09-19T06:23:58;100178.66;;;22.88;76.03
20696;BME280;10507;52.754;13.040;2023-09-19T06:26:26;100167.09;;;23.27;74.87
20696;BME280;10507;52.754;13.040;2023-09-19T06:28:55;99966.72;;;23.32;72.99
20696;BME280;10507;52.754;13.040;2023-09-19T06:31:23;100044.06;;;23.62;73.11
20696;BME280;10507;52.754;13.040;2023-09-19T06:33:53;100109.19;;;24.05;72.56
20696;BME280;10507;52.754;13.040;2023-09-19T06:36:22;99769.00;;;23.38;72.66
20696;BME280;10507;52.754;13.040;2023-09-19T06:38:50;99757.81;;;23.33;72.94
20696;BME280;10507;52.754;13.040;2023-09-19T06:41:18;99609.09;;;22.77;74.06
20696;BME280;10507;52.754;13.040;2023-09-19T06:43:51;99539.31;;;22.38;75.39
20696;BME280;10507;52.754;13.040;2023-09-19T06:46:20;99506.25;;;21.56;77.01
20696;BME280;10507;52.754;13.040;2023-09-19T06:48:48;99596.09;;;21.22;79.07
20696;BME280;10507;52.754;13.040;2023-09-19T06:51:16;99530.16;;;20.88;79.09
20696;BME280;10507;52.754;13.040;2023-09-19T06:53:45;99591.19;;;20.68;80.28
20696;BME280;10507;52.754;13.040;2023-09-19T06:56:13;99584.50;;;20.29;81.51
20696;BME280;10507;52.754;13.040;2023-09-19T06:58:41;99617.31;;;19.84;83.07
20696;BME280;10507;52.754;13.040;2023-09-19T07:01:10;99664.59;;;19.37;84.96
20696;BME280;10507;52.754;13.040;2023-09-19T07:03:37;99728.88;;;19.17;86.15
20696;BME280;10507;52.754;13.040;2023-09-19T07:06:07;99776.53;;;19.00;87.12
20696;BME280;10507;52.754;13.040;2023-09-19T07:08:35;99812.63;;;18.91;88.15
20696;BME280;10507;52.754;13.040;2023-09-19T07:11:06;99791.19;;;18.80;87.89
20696;BME280;10507;52.754;13.040;2023-09-19T07:13:34;99825.19;;;18.82;88.23
20696;BME280;10507;52.754;13.040;2023-09-19T07:16:02;99823.16;;;18.57;88.85
20696;BME280;10507;52.754;13.040;2023-09-19T07:18:30;99832.31;;;18.46;89.22
20696;BME280;10507;52.754;13.040;2023-09-19T07:20:58;99888.91;;;18.57;89.46
20696;BME280;10507;52.754;13.040;2023-09-19T07:23:31;99883.22;;;18.51;90.03
20696;BME280;10507;52.754;13.040;2023-09-19T07:26:01;99915.63;;;18.60;89.70
20696;BME280;10507;52.754;13.040;2023-09-19T07:28:33;99905.78;;;18.79;89.00
20696;BME280;10507;52.754;13.040;2023-09-19T07:31:02;99856.97;;;18.70;88.13
20696;BME280;10507;52.754;13.040;2023-09-19T07:33:31;99914.28;;;18.94;88.40
20696;BME280;10507;52.754;13.040;2023-09-19T07:35:59;99905.22;;;19.13;87.42
20696;BME280;10507;52.754;13.040;2023-09-19T07:38:27;99855.44;;;19.23;86.36
20696;BME280;10507;52.754;13.040;2023-09-19T07:41:00;99879.28;;;19.38;86.42
20696;BME280;10507;52.754;13.040;2023-09-19T07:43:29;99857.31;;;19.59;85.58
20696;BME280;10507;52.754;13.040;2023-09-19T07:46:03;99867.66;;;19.73;84.85
20696;BME280;10507;52.754;13.040;2023-09-19T07:48:33;99822.94;;;19.69;84.24
20696;BME280;10507;52.754;13.040;2023-09-19T07:51:02;99762.19;;;19.53;83.91
20696;BME280;10507;52.754;13.040;2023-09-19T07:53:31;99785.47;;;19.46;84.33
20696;BME280;10507;52.754;13.040;2023-09-19T07:56:05;99807.19;;;19.37;84.80
20696;BME280;10507;52.754;13.040;2023-09-19T07:58:33;99830.59;;;19.28;85.20
20696;BME280;10507;52.754;13.040;2023-09-19T08:01:04;99809.50;;;19.14;85.54
20696;BME280;10507;52.754;13.040;2023-09-19T08:03:33;99810.09;;;19.07;85.54
20696;BME280;10507;52.754;13.040;2023-09-19T08:06:01;99836.00;;;19.10;85.98
20696;BME280;10507;52.754;13.040;2023-09-19T08:08:33;99921.78;;;19.55;85.91
20696;BME280;10507;52.754;13.040;2023-09-19T08:11:04;99925.00;;;19.86;85.33
20696;BME280;10507;52.754;13.040;2023-09-19T08:13:37;99858.19;;;19.95;83.63
20696;BME280;10507;52.754;13.040;2023-09-19T08:16:09;99835.47;;;20.14;82.63
20696;BME280;10507;52.754;13.040;2023-09-19T08:18:38;99840.50;;;20.27;82.34
20696;BME280;10507;52.754;13.040;2023-09-19T08:21:06;99894.69;;;20.53;82.51
20696;BME280;10507;52.754;13.040;2023-09-19T08:23:37;99818.16;;;20.59;80.92
20696;BME280;10507;52.754;13.040;2023-09-19T08:26:06;99753.69;;;20.53;79.75
20696;BME280;10507;52.754;13.040;2023-09-19T08:28:34;99802.13;;;20.82;79.36
20696;BME280;10507;52.754;13.040;2023-09-19T08:31:03;99750.78;;;20.81;78.90
20696;BME280;10507;52.754;13.040;2023-09-19T08:33:34;99728.00;;;20.73;78.90
20696;BME280;10507;52.754;13.040;2023-09-19T08:36:02;99649.66;;;20.62;77.80
20696;BME280;10507;52.754;13.040;2023-09-19T08:38:31;99730.41;;;20.85;77.91
20696;BME280;10507;52.754;13.040;2023-09-19T08:41:00;99686.00;;;20.94;76.70
20696;BME280;10507;52.754;13.040;2023-09-19T08:43:28;99697.72;;;21.11;76.41
20696;BME280;10507;52.754;13.040;2023-09-19T08:46:03;99677.03;;;21.02;75.92
20696;BME280;10507;52.754;13.040;2023-09-19T08:48:39;99684.66;;;21.06;76.12
20696;BME280;10507;52.754;13.040;2023-09-19T08:51:18;99666.34;;;21.00;75.20
20696;BME280;10507;52.754;13.040;2023-09-19T08:53:51;99650.41;;;20.97;74.94
20696;BME280;10507;52.754;13.040;2023-09-19T08:56:19;99644.47;;;21.10;73.37
20696;BME280;10507;52.754;13.040;2023-09-19T08:58:52;99648.69;;;21.21;72.67
20696;BME280;10507;52.754;13.040;2023-09-19T09:01:21;99667.19;;;21.17;73.25
20696;BME280;10507;52.754;13.040;2023-09-19T09:03:55;99663.13;;;21.13;72.76
20696;BME280;10507;52.754;13.040;2023-09-19T09:06:24;99701.13;;;21.13;73.20
20696;BME280;10507;52.754;13.040;2023-09-19T09:08:52;99674.16;;;21.28;71.61
20696;BME280;10507;52.754;13.040;2023-09-19T09:11:21;99646.50;;;21.24;71.56
20696;BME280;10507;52.754;13.040;2023-09-19T09:13:49;99635.13;;;21.21;70.77
20696;BME280;10507;52.754;13.040;2023-09-19T09:16:17;99616.28;;;21.03;69.80
20696;BME280;10507;52.754;13.040;2023-09-19T09:18:46;99636.50;;;21.08;69.33
20696;BME280;10507;52.754;13.040;2023-09-19T09:21:20;99648.03;;;21.10;69.29
20696;BME280;10507;52.754;13.040;2023-09-19T09:23:49;99666.19;;;21.26;68.99
20696;BME280;10507;52.754;13.040;2023-09-19T09:26:40;99590.00;;;21.28;67.09
20696;BME280;10507;52.754;13.040;2023-09-19T09:29:09;99653.44;;;21.51;67.78
20696;BME280;10507;52.754;13.040;2023-09-19T09:31:36;99647.03;;;21.44;67.37
20696;BME280;10507;52.754;13.040;2023-09-19T09:34:06;99662.28;;;21.45;68.05
20696;BME280;10507;52.754;13.040;2023-09-19T09:36:36;99682.63;;;21.25;68.26
20696;BME280;10507;52.754;13.040;2023-09-19T09:39:05;99710.84;;;21.48;67.78
20696;BME280;10507;52.754;13.040;2023-09-19T09:41:44;99745.13;;;21.74;67.83
20696;BME280;10507;52.754;13.040;2023-09-19T09:44:13;99723.84;;;21.94;67.26
20696;BME280;10507;52.754;13.040;2023-09-19T09:46:43;99724.16;;;22.15;66.94
20696;BME280;10507;52.754;13.040;2023-09-19T09:49:28;99693.97;;;21.94;66.31
20696;BME280;10507;52.754;13.040;2023-09-19T09:52:04;99664.13;;;21.77;66.01
20696;BME280;10507;52.754;13.040;2023-09-19T09:54:37;99669.94;;;21.42;66.76
20696;BME280;10507;52.754;13.040;2023-09-19T09:57:09;99712.97;;;21.12;68.14
20696;BME280;10507;52.754;13.040;2023-09-19T09:59:46;99708.19;;;20.89;67.77
20696;BME280;10507;52.754;13.040;2023-09-19T10:02:15;99734.00;;;20.85;68.34
20696;BME280;10507;52.754;13.040;2023-09-19T10:04:50;99771.78;;;20.87;69.21
20696;BME280;10507;52.754;13.040;2023-09-19T10:07:37;99688.53;;;20.95;66.73
20696;BME280;10507;52.754;13.040;2023-09-19T10:10:13;99743.91;;;21.19;67.07
20696;BME280;10507;52.754;13.040;2023-09-19T10:12:51;99726.09;;;21.33;66.56
20696;BME280;10507;52.754;13.040;2023-09-19T10:15:24;99675.38;;;21.42;64.83
20696;BME280;10507;52.754;13.040;2023-09-19T10:17:57;99679.75;;;21.67;64.50
20696;BME280;10507;52.754;13.040;2023-09-19T10:20:28;99681.63;;;21.58;64.48
20696;BME280;10507;52.754;13.040;2023-09-19T10:23:08;99677.72;;;21.61;63.91
20696;BME280;10507;52.754;13.040;2023-09-19T10:25:38;99742.19;;;22.00;64.62
20696;BME280;10507;52.754;13.040;2023-09-19T10:28:07;99714.81;;;22.10;63.83
20696;BME280;10507;52.754;13.040;2023-09-19T10:30:41;99674.41;;;21.98;63.29
20696;BME280;10507;52.754;13.040;2023-09-19T10:33:12;99721.59;;;22.14;63.52
20696;BME280;10507;52.754;13.040;2023-09-19T10:35:43;99674.88;;;22.10;62.59
20696;BME280;10507;52.754;13.040;2023-09-19T10:38:13;99648.78;;;21.93;62.28
20696;BME280;10507;52.754;13.040;2023-09-19T10:40:49;99642.06;;;21.56;62.66
20696;BME280;10507;52.754;13.040;2023-09-19T10:43:19;99673.34;;;21.44;63.48
20696;BME280;10507;52.754;13.040;2023-09-19T10:45:49;99665.00;;;21.37;63.14
20696;BME280;10507;52.754;13.040;2023-09-19T10:48:20;99736.28;;;21.47;64.71
20696;BME280;10507;52.754;13.040;2023-09-19T10:50:58;99709.13;;;21.55;63.62
20696;BME280;10507;52.754;13.040;2023-09-19T10:53:44;99718.44;;;21.36;64.08
20696;BME280;10507;52.754;13.040;2023-09-19T10:56:19;99716.94;;;21.26;64.67
20696;BME280;10507;52.754;13.040;2023-09-19T10:58:49;99731.31;;;21.34;64.06
20696;BME280;10507;52.754;13.040;2023-09-19T11:01:18;99744.44;;;21.55;63.83
20696;BME280;10507;52.754;13.040;2023-09-19T11:03:47;99797.94;;;21.71;64.87
20696;BME280;10507;52.754;13.040;2023-09-19T11:06:19;99749.53;;;21.67;63.58
20696;BME280;10507;52.754;13.040;2023-09-19T11:08:59;99707.09;;;21.41;63.33
20696;BME280;10507;52.754;13.040;2023-09-19T11:11:50;99753.28;;;21.49;63.60
20696;BME280;10507;52.754;13.040;2023-09-19T11:14:38;99740.69;;;21.40;63.27
20696;BME280;10507;52.754;13.040;2023-09-19T11:17:40;99780.75;;;21.54;63.87
20696;BME280;10507;52.754;13.040;2023-09-19T11:20:23;99758.53;;;21.51;63.43
20696;BME280;10507;52.754;13.040;2023-09-19T11:23:23;99744.91;;;21.26;63.70
20696;BME280;10507;52.754;13.040;2023-09-19T11:25:54;99736.94;;;21.25;63.32
20696;BME280;10507;52.754;13.040;2023-09-19T11:28:35;99754.13;;;21.42;63.31
20696;BME280;10507;52.754;13.040;2023-09-19T11:34:43;99758.19;;;21.70;62.60
20696;BME280;10507;52.754;13.040;2023-09-19T11:40:45;99709.44;;;21.85;61.27
20696;BME280;10507;52.754;13.040;2023-09-19T11:43:32;99744.28;;;21.73;61.79
20696;BME280;10507;52.754;13.040;2023-09-19T11:46:06;99730.53;;;21.67;61.80
20696;BME280;10507;52.754;13.040;2023-09-19T11:48:40;99710.69;;;21.42;61.38
20696;BME280;10507;52.754;13.040;2023-09-19T11:51:15;99757.34;;;21.53;61.88
20696;BME280;10507;52.754;13.040;2023-09-19T11:53:49;99743.41;;;21.56;61.65
20696;BME280;10507;52.754;13.040;2023-09-19T11:56:18;99746.66;;;21.52;61.95
20696;BME280;10507;52.754;13.040;2023-09-19T11:58:49;99720.53;;;21.51;61.29
20696;BME280;10507;52.754;13.040;2023-09-19T12:01:25;99755.31;;;21.55;61.33
20696;BME280;10507;52.754;13.040;2023-09-19T12:03:57;99787.91;;;21.72;61.57
20696;BME280;10507;52.754;13.040;2023-09-19T12:06:27;99763.81;;;21.69;61.04
20696;BME280;10507;52.754;13.040;2023-09-19T12:08:56;99773.84;;;21.68;61.39
20696;BME280;10507;52.754;13.040;2023-09-19T12:11:28;99751.91;;;21.53;61.68
20696;BME280;10507;52.754;13.040;2023-09-19T12:14:02;99841.91;;;21.83;62.70
20696;BME280;10507;52.754;13.040;2023-09-19T12:16:31;99830.72;;;22.03;61.69
20696;BME280;10507;52.754;13.040;2023-09-19T12:19:18;99821.53;;;22.20;61.09
20696;BME280;10507;52.754;13.040;2023-09-19T12:21:54;99819.31;;;22.24;61.12
20696;BME280;10507;52.754;13.040;2023-09-19T12:24:23;99859.94;;;22.25;62.39
20696;BME280;10507;52.754;13.040;2023-09-19T12:27:00;99770.19;;;22.17;60.36
20696;BME280;10507;52.754;13.040;2023-09-19T12:29:41;99779.06;;;22.11;60.97
20696;BME280;10507;52.754;13.040;2023-09-19T12:32:10;99831.91;;;22.25;61.61
20696;BME280;10507;52.754;13.040;2023-09-19T12:34:38;99801.66;;;22.11;61.46
20696;BME280;10507;52.754;13.040;2023-09-19T12:37:10;99795.69;;;22.16;61.12
20696;BME280;10507;52.754;13.040;2023-09-19T12:39:40;99811.00;;;21.92;61.62
20696;BME280;10507;52.754;13.040;2023-09-19T12:42:16;99853.31;;;22.11;62.28
20696;BME280;10507;52.754;13.040;2023-09-19T12:44:46;99829.69;;;22.04;61.88
20696;BME280;10507;52.754;13.040;2023-09-19T12:47:16;99816.09;;;22.12;60.95
20696;BME280;10507;52.754;13.040;2023-09-19T12:50:06;99810.31;;;21.90;61.68
20696;BME280;10507;52.754;13.040;2023-09-19T12:52:35;99826.31;;;21.93;61.78
20696;BME280;10507;52.754;13.040;2023-09-19T12:55:04;99808.63;;;21.65;61.94
20696;BME280;10507;52.754;13.040;2023-09-19T12:57:33;99794.69;;;21.43;61.62
20696;BME280;10507;52.754;13.040;2023-09-19T13:00:04;99816.44;;;21.59;61.61
20696;BME280;10507;52.754;13.040;2023-09-19T13:02:32;99802.50;;;21.54;61.76
20696;BME280;10507;52.754;13.040;2023-09-19T13:05:00;99830.38;;;21.65;61.59
20696;BME280;10507;52.754;13.040;2023-09-19T13:07:40;99822.56;;;21.70;61.48